sensor_id;sensor_type;location;lat;lon;timestamp;pressure;altitude;pressure_sealevel;temperature;humidity
65760;BME280;52496;51.082;5.066;2022-08-19T00:00:27;101282.81;;;17.68;92.84
65760;BME280;52496;51.082;5.066;2022-08-19T00:02:58;101277.81;;;17.65;92.93
65760;BME280;52496;51.082;5.066;2022-08-19T00:05:28;101282.63;;;17.63;93.53
65760;BME280;52496;51.082;5.066;2022-08-19T00:07:59;101283.66;;;17.62;93.17
65760;BME280;52496;51.082;5.066;2022-08-19T00:10:29;101285.78;;;17.60;92.83
65760;BME280;52496;51.082;5.066;2022-08-19T00:12:59;101278.69;;;17.59;92.74
65760;BME280;52496;51.082;5.066;2022-08-19T00:15:30;101292.47;;;17.57;92.65
65760;BME280;52496;51.082;5.066;2022-08-19T00:18:00;101293.72;;;17.55;93.50
65760;BME280;52496;51.082;5.066;2022-08-19T00:20:31;101298.75;;;17.51;93.43
65760;BME280;52496;51.082;5.066;2022-08-19T00:23:01;101298.34;;;17.48;93.04
65760;BME280;52496;51.082;5.066;2022-08-19T00:25:34;101300.44;;;17.46;92.61
65760;BME280;52496;51.082;5.066;2022-08-19T00:28:05;101310.03;;;17.41;93.27
65760;BME280;52496;51.082;5.066;2022-08-19T00:30:36;101300.09;;;17.35;93.57
65760;BME280;52496;51.082;5.066;2022-08-19T00:33:06;101297.00;;;17.32;94.22
65760;BME280;52496;51.082;5.066;2022-08-19T00:35:38;101301.38;;;17.33;94.80
65760;BME280;52496;51.082;5.066;2022-08-19T00:38:08;101304.28;;;17.31;95.30
65760;BME280;52496;51.082;5.066;2022-08-19T00:40:39;101300.97;;;17.29;95.19
65760;BME280;52496;51.082;5.066;2022-08-19T00:43:10;101312.22;;;17.26;95.17
65760;BME280;52496;51.082;5.066;2022-08-19T00:45:43;101306.19;;;17.24;95.43
65760;BME280;52496;51.082;5.066;2022-08-19T00:48:14;101307.25;;;17.23;95.28
65760;BME280;52496;51.082;5.066;2022-08-19T00:50:48;101308.28;;;17.22;94.92
65760;BME280;52496;51.082;5.066;2022-08-19T00:53:22;101310.38;;;17.20;95.54
65760;BME280;52496;51.082;5.066;2022-08-19T00:55:55;101308.50;;;17.20;95.85
65760;BME280;52496;51.082;5.066;2022-08-19T00:58:29;101309.78;;;17.18;95.85
65760;BME280;52496;51.082;5.066;2022-08-19T01:01:01;101311.84;;;17.16;96.23
65760;BME280;52496;51.082;5.066;2022-08-19T01:03:32;101309.38;;;17.14;96.63
65760;BME280;52496;51.082;5.066;2022-08-19T01:06:02;101304.16;;;17.13;96.67
65760;BME280;52496;51.082;5.066;2022-08-19T01:08:33;101308.56;;;17.14;96.22
65760;BME280;52496;51.082;5.066;2022-08-19T01:11:04;101306.06;;;17.12;96.33
65760;BME280;52496;51.082;5.066;2022-08-19T01:13:35;101306.06;;;17.12;95.82
65760;BME280;52496;51.082;5.066;2022-08-19T01:16:10;101304.41;;;17.11;95.38
65760;BME280;52496;51.082;5.066;2022-08-19T01:18:43;101307.31;;;17.10;95.36
65760;BME280;52496;51.082;5.066;2022-08-19T01:21:34;101301.50;;;17.06;96.07
65760;BME280;52496;51.082;5.066;2022-08-19T01:24:07;101306.31;;;17.04;95.61
65760;BME280;52496;51.082;5.066;2022-08-19T01:26:41;101305.69;;;17.02;96.03
65760;BME280;52496;51.082;5.066;2022-08-19T01:29:12;101305.91;;;17.01;96.42
65760;BME280;52496;51.082;5.066;2022-08-19T01:31:44;101314.00;;;17.01;96.79
65760;BME280;52496;51.082;5.066;2022-08-19T01:34:14;101306.97;;;17.00;97.10
65760;BME280;52496;51.082;5.066;2022-08-19T01:36:46;101298.22;;;16.97;96.92
65760;BME280;52496;51.082;5.066;2022-08-19T01:39:20;101296.59;;;16.96;96.51
65760;BME280;52496;51.082;5.066;2022-08-19T01:41:51;101297.63;;;16.95;96.62
65760;BME280;52496;51.082;5.066;2022-08-19T01:44:25;101302.41;;;16.93;95.88
65760;BME280;52496;51.082;5.066;2022-08-19T01:46:55;101309.91;;;16.91;95.95
65760;BME280;52496;51.082;5.066;2022-08-19T01:49:26;101312.00;;;16.89;96.11
65760;BME280;52496;51.082;5.066;2022-08-19T01:51:56;101308.69;;;16.87;96.47
65760;BME280;52496;51.082;5.066;2022-08-19T01:54:29;101319.09;;;16.84;96.86
65760;BME280;52496;51.082;5.066;2022-08-19T01:57:03;101319.50;;;16.81;96.68
65760;BME280;52496;51.082;5.066;2022-08-19T01:59:35;101319.72;;;16.79;96.69
65760;BME280;52496;51.082;5.066;2022-08-19T02:02:06;101329.94;;;16.77;96.41
65760;BME280;52496;51.082;5.066;2022-08-19T02:04:39;101328.25;;;16.76;96.46
65760;BME280;52496;51.082;5.066;2022-08-19T02:07:10;101323.25;;;16.73;96.71
65760;BME280;52496;51.082;5.066;2022-08-19T02:09:40;101330.75;;;16.71;96.28
65760;BME280;52496;51.082;5.066;2022-08-19T02:12:11;101327.41;;;16.69;96.67
65760;BME280;52496;51.082;5.066;2022-08-19T02:14:41;101327.84;;;16.66;96.66
65760;BME280;52496;51.082;5.066;2022-08-19T02:17:12;101322.03;;;16.62;96.33
65760;BME280;52496;51.082;5.066;2022-08-19T02:19:43;101323.69;;;16.63;97.08
65760;BME280;52496;51.082;5.066;2022-08-19T02:22:13;101320.38;;;16.61;96.82
65760;BME280;52496;51.082;5.066;2022-08-19T02:24:44;101327.03;;;16.59;96.78
65760;BME280;52496;51.082;5.066;2022-08-19T02:27:15;101325.59;;;16.56;97.23
65760;BME280;52496;51.082;5.066;2022-08-19T02:29:46;101321.22;;;16.55;97.51
65760;BME280;52496;51.082;5.066;2022-08-19T02:32:17;101323.09;;;16.55;97.33
65760;BME280;52496;51.082;5.066;2022-08-19T02:34:51;101325.19;;;16.52;97.53
65760;BME280;52496;51.082;5.066;2022-08-19T02:37:22;101336.00;;;16.52;98.03
65760;BME280;52496;51.082;5.066;2022-08-19T02:40:11;101326.44;;;16.50;97.71
65760;BME280;52496;51.082;5.066;2022-08-19T02:42:41;101328.31;;;16.49;97.57
65760;BME280;52496;51.082;5.066;2022-08-19T02:45:13;101327.69;;;16.47;97.42
65760;BME280;52496;51.082;5.066;2022-08-19T02:47:45;101325.41;;;16.44;97.75
65760;BME280;52496;51.082;5.066;2022-08-19T02:50:15;101322.72;;;16.44;98.27
65760;BME280;52496;51.082;5.066;2022-08-19T02:52:46;101322.91;;;16.43;98.19
65760;BME280;52496;51.082;5.066;2022-08-19T02:55:16;101325.41;;;16.44;99.33
65760;BME280;52496;51.082;5.066;2022-08-19T02:57:47;101327.06;;;16.45;99.67
65760;BME280;52496;51.082;5.066;2022-08-19T03:00:17;101321.66;;;16.45;100.00
65760;BME280;52496;51.082;5.066;2022-08-19T03:02:48;101333.28;;;16.46;100.00
65760;BME280;52496;51.082;5.066;2022-08-19T03:05:19;101331.44;;;16.46;100.00
65760;BME280;52496;51.082;5.066;2022-08-19T03:07:49;101339.13;;;16.49;100.00
65760;BME280;52496;51.082;5.066;2022-08-19T03:10:20;101344.72;;;16.48;100.00
65760;BME280;52496;51.082;5.066;2022-08-19T03:12:50;101323.94;;;16.48;100.00
65760;BME280;52496;51.082;5.066;2022-08-19T03:15:21;101326.63;;;16.48;100.00
65760;BME280;52496;51.082;5.066;2022-08-19T03:17:51;101325.81;;;16.48;100.00
65760;BME280;52496;51.082;5.066;2022-08-19T03:20:21;101326.88;;;16.47;100.00
65760;BME280;52496;51.082;5.066;2022-08-19T03:22:52;101324.16;;;16.47;100.00
65760;BME280;52496;51.082;5.066;2022-08-19T03:25:22;101321.47;;;16.47;100.00
65760;BME280;52496;51.082;5.066;2022-08-19T03:27:53;101323.78;;;16.43;100.00
65760;BME280;52496;51.082;5.066;2022-08-19T03:30:23;101318.56;;;16.42;100.00
65760;BME280;52496;51.082;5.066;2022-08-19T03:32:54;101319.81;;;16.39;99.97
65760;BME280;52496;51.082;5.066;2022-08-19T03:35:24;101317.13;;;16.39;99.05
65760;BME280;52496;51.082;5.066;2022-08-19T03:37:54;101325.84;;;16.35;98.86
65760;BME280;52496;51.082;5.066;2022-08-19T03:40:26;101322.13;;;16.29;98.96
65760;BME280;52496;51.082;5.066;2022-08-19T03:42:57;101319.63;;;16.27;98.74
65760;BME280;52496;51.082;5.066;2022-08-19T03:45:27;101320.28;;;16.23;98.96
65760;BME280;52496;51.082;5.066;2022-08-19T03:47:57;101327.09;;;16.19;98.97
65760;BME280;52496;51.082;5.066;2022-08-19T03:50:28;101326.69;;;16.15;98.84
65760;BME280;52496;51.082;5.066;2022-08-19T03:52:58;101321.94;;;16.11;98.69
65760;BME280;52496;51.082;5.066;2022-08-19T03:55:29;101333.16;;;16.08;98.92
65760;BME280;52496;51.082;5.066;2022-08-19T03:57:59;101330.88;;;16.04;99.16
65760;BME280;52496;51.082;5.066;2022-08-19T04:00:30;101325.06;;;16.01;99.37
65760;BME280;52496;51.082;5.066;2022-08-19T04:03:00;101331.72;;;15.98;99.42
65760;BME280;52496;51.082;5.066;2022-08-19T04:05:30;101327.34;;;15.97;99.03
65760;BME280;52496;51.082;5.066;2022-08-19T04:08:01;101323.41;;;15.93;98.75
65760;BME280;52496;51.082;5.066;2022-08-19T04:10:38;101336.69;;;15.88;98.50
65760;BME280;52496;51.082;5.066;2022-08-19T04:13:10;101324.66;;;15.84;98.61
65760;BME280;52496;51.082;5.066;2022-08-19T04:15:43;101332.34;;;15.80;99.06
65760;BME280;52496;51.082;5.066;2022-08-19T04:18:14;101337.72;;;15.80;99.66
65760;BME280;52496;51.082;5.066;2022-08-19T04:20:46;101326.31;;;15.78;99.62
65760;BME280;52496;51.082;5.066;2022-08-19T04:23:17;101334.63;;;15.77;99.52
65760;BME280;52496;51.082;5.066;2022-08-19T04:25:49;101331.28;;;15.75;99.15
65760;BME280;52496;51.082;5.066;2022-08-19T04:28:19;101323.41;;;15.73;99.65
65760;BME280;52496;51.082;5.066;2022-08-19T04:30:52;101333.34;;;15.73;99.77
65760;BME280;52496;51.082;5.066;2022-08-19T04:33:24;101334.41;;;15.72;100.00
65760;BME280;52496;51.082;5.066;2022-08-19T04:35:55;101330.06;;;15.71;100.00
65760;BME280;52496;51.082;5.066;2022-08-19T04:38:26;101333.34;;;15.73;100.00
65760;BME280;52496;51.082;5.066;2022-08-19T04:40:57;101323.00;;;15.76;100.00
65760;BME280;52496;51.082;5.066;2022-08-19T04:43:46;101328.41;;;15.83;100.00
65760;BME280;52496;51.082;5.066;2022-08-19T04:46:20;101331.28;;;15.88;100.00
65760;BME280;52496;51.082;5.066;2022-08-19T04:48:51;101335.84;;;15.94;100.00
65760;BME280;52496;51.082;5.066;2022-08-19T04:51:21;101335.88;;;16.01;100.00
65760;BME280;52496;51.082;5.066;2022-08-19T04:53:52;101329.81;;;16.05;100.00
65760;BME280;52496;51.082;5.066;2022-08-19T04:56:22;101332.94;;;16.09;100.00
65760;BME280;52496;51.082;5.066;2022-08-19T04:58:57;101332.50;;;16.12;100.00
65760;BME280;52496;51.082;5.066;2022-08-19T05:01:29;101342.69;;;16.17;100.00
65760;BME280;52496;51.082;5.066;2022-08-19T05:04:00;101349.13;;;16.22;100.00
65760;BME280;52496;51.082;5.066;2022-08-19T05:06:33;101347.84;;;16.25;100.00
65760;BME280;52496;51.082;5.066;2022-08-19T05:09:04;101354.50;;;16.29;100.00
65760;BME280;52496;51.082;5.066;2022-08-19T05:11:36;101354.28;;;16.31;100.00
65760;BME280;52496;51.082;5.066;2022-08-19T05:14:10;101357.38;;;16.34;100.00
65760;BME280;52496;51.082;5.066;2022-08-19T05:16:42;101365.09;;;16.37;100.00
65760;BME280;52496;51.082;5.066;2022-08-19T05:19:13;101370.69;;;16.42;100.00
65760;BME280;52496;51.082;5.066;2022-08-19T05:22:02;101362.78;;;16.47;100.00
65760;BME280;52496;51.082;5.066;2022-08-19T05:24:51;101367.75;;;16.50;100.00
65760;BME280;52496;51.082;5.066;2022-08-19T05:27:21;101372.31;;;16.57;100.00
65760;BME280;52496;51.082;5.066;2022-08-19T05:29:52;101373.97;;;16.58;100.00
65760;BME280;52496;51.082;5.066;2022-08-19T05:32:22;101380.41;;;16.63;100.00
65760;BME280;52496;51.082;5.066;2022-08-19T05:34:53;101381.44;;;16.69;100.00
65760;BME280;52496;51.082;5.066;2022-08-19T05:37:24;101382.66;;;16.73;100.00
65760;BME280;52496;51.082;5.066;2022-08-19T05:39:56;101382.88;;;16.78;100.00
65760;BME280;52496;51.082;5.066;2022-08-19T05:42:27;101385.16;;;16.81;100.00
65760;BME280;52496;51.082;5.066;2022-08-19T05:44:57;101389.72;;;16.87;100.00
65760;BME280;52496;51.082;5.066;2022-08-19T05:47:28;101385.53;;;16.91;100.00
65760;BME280;52496;51.082;5.066;2022-08-19T05:49:58;101384.69;;;16.97;100.00
65760;BME280;52496;51.082;5.066;2022-08-19T05:52:29;101379.06;;;17.06;99.91
65760;BME280;52496;51.082;5.066;2022-08-19T05:55:00;101387.13;;;17.12;100.00
65760;BME280;52496;51.082;5.066;2022-08-19T05:57:31;101380.03;;;17.18;99.33
65760;BME280;52496;51.082;5.066;2022-08-19T06:00:01;101379.81;;;17.26;99.56
65760;BME280;52496;51.082;5.066;2022-08-19T06:02:32;101377.44;;;17.36;99.18
65760;BME280;52496;51.082;5.066;2022-08-19T06:05:04;101380.72;;;17.45;98.78
65760;BME280;52496;51.082;5.066;2022-08-19T06:07:39;101381.75;;;17.51;98.18
65760;BME280;52496;51.082;5.066;2022-08-19T06:10:10;101378.59;;;17.54;97.79
65760;BME280;52496;51.082;5.066;2022-08-19T06:12:41;101382.91;;;17.61;97.46
65760;BME280;52496;51.082;5.066;2022-08-19T06:15:13;101381.00;;;17.69;97.24
65760;BME280;52496;51.082;5.066;2022-08-19T06:17:44;101385.53;;;17.75;96.70
65760;BME280;52496;51.082;5.066;2022-08-19T06:20:14;101367.03;;;17.78;96.13
65760;BME280;52496;51.082;5.066;2022-08-19T06:22:47;101379.25;;;17.87;96.53
65760;BME280;52496;51.082;5.066;2022-08-19T06:25:19;101381.25;;;17.99;96.28
65760;BME280;52496;51.082;5.066;2022-08-19T06:27:50;101379.91;;;18.08;94.97
65760;BME280;52496;51.082;5.066;2022-08-19T06:30:20;101379.63;;;18.16;94.75
65760;BME280;52496;51.082;5.066;2022-08-19T06:32:51;101376.63;;;18.24;94.05
65760;BME280;52496;51.082;5.066;2022-08-19T06:35:21;101374.69;;;18.31;94.14
65760;BME280;52496;51.082;5.066;2022-08-19T06:37:52;101377.13;;;18.40;94.20
65760;BME280;52496;51.082;5.066;2022-08-19T06:40:23;101377.66;;;18.48;93.10
65760;BME280;52496;51.082;5.066;2022-08-19T06:42:53;101371.72;;;18.58;92.63
65760;BME280;52496;51.082;5.066;2022-08-19T06:45:23;101380.16;;;18.68;92.46
65760;BME280;52496;51.082;5.066;2022-08-19T06:47:54;101379.69;;;18.78;92.49
65760;BME280;52496;51.082;5.066;2022-08-19T06:50:26;101376.19;;;18.89;90.44
65760;BME280;52496;51.082;5.066;2022-08-19T06:52:56;101374.38;;;19.01;91.19
65760;BME280;52496;51.082;5.066;2022-08-19T06:55:26;101373.00;;;19.11;91.02
65760;BME280;52496;51.082;5.066;2022-08-19T06:58:01;101376.25;;;19.19;89.17
65760;BME280;52496;51.082;5.066;2022-08-19T07:00:32;101371.56;;;19.27;89.46
65760;BME280;52496;51.082;5.066;2022-08-19T07:03:03;101379.38;;;19.35;88.90
65760;BME280;52496;51.082;5.066;2022-08-19T07:05:39;101376.72;;;19.46;89.18
65760;BME280;52496;51.082;5.066;2022-08-19T07:08:10;101371.47;;;19.63;87.72
65760;BME280;52496;51.082;5.066;2022-08-19T07:10:45;101381.47;;;19.81;88.53
65760;BME280;52496;51.082;5.066;2022-08-19T07:13:15;101373.91;;;19.95;86.11
65760;BME280;52496;51.082;5.066;2022-08-19T07:15:46;101384.06;;;20.11;86.97
65760;BME280;52496;51.082;5.066;2022-08-19T07:18:20;101388.00;;;20.27;84.82
65760;BME280;52496;51.082;5.066;2022-08-19T07:23:37;101395.13;;;20.52;84.00
65760;BME280;52496;51.082;5.066;2022-08-19T07:26:32;101397.69;;;20.70;83.54
65760;BME280;52496;51.082;5.066;2022-08-19T07:29:00;101395.91;;;20.76;81.30
65760;BME280;52496;51.082;5.066;2022-08-19T07:31:32;101394.50;;;20.85;82.62
65760;BME280;52496;51.082;5.066;2022-08-19T07:34:08;101398.00;;;20.97;81.36
65760;BME280;52496;51.082;5.066;2022-08-19T07:36:40;101404.47;;;21.08;80.02
65760;BME280;52496;51.082;5.066;2022-08-19T07:39:14;101410.50;;;21.10;79.32
65760;BME280;52496;51.082;5.066;2022-08-19T07:41:46;101414.53;;;21.07;80.08
65760;BME280;52496;51.082;5.066;2022-08-19T07:44:18;101417.50;;;21.06;79.69
65760;BME280;52496;51.082;5.066;2022-08-19T07:46:53;101413.38;;;21.03;79.66
65760;BME280;52496;51.082;5.066;2022-08-19T07:49:23;101426.13;;;21.03;79.97
65760;BME280;52496;51.082;5.066;2022-08-19T07:52:00;101429.53;;;21.10;79.61
65760;BME280;52496;51.082;5.066;2022-08-19T07:54:33;101423.28;;;21.10;79.30
65760;BME280;52496;51.082;5.066;2022-08-19T07:57:04;101423.34;;;21.15;79.58
65760;BME280;52496;51.082;5.066;2022-08-19T07:59:35;101434.34;;;21.20;78.79
65760;BME280;52496;51.082;5.066;2022-08-19T08:02:08;101427.63;;;21.22;78.46
65760;BME280;52496;51.082;5.066;2022-08-19T08:04:38;101432.91;;;21.29;78.68
65760;BME280;52496;51.082;5.066;2022-08-19T08:07:27;101430.19;;;21.41;78.48
65760;BME280;52496;51.082;5.066;2022-08-19T08:10:16;101437.22;;;21.53;77.34
65760;BME280;52496;51.082;5.066;2022-08-19T08:12:47;101432.56;;;21.66;77.08
65760;BME280;52496;51.082;5.066;2022-08-19T08:15:17;101434.50;;;21.82;76.64
65760;BME280;52496;51.082;5.066;2022-08-19T08:17:48;101432.88;;;21.98;77.14
65760;BME280;52496;51.082;5.066;2022-08-19T08:20:19;101439.88;;;22.11;75.50
65760;BME280;52496;51.082;5.066;2022-08-19T08:22:50;101435.03;;;22.13;75.13
65760;BME280;52496;51.082;5.066;2022-08-19T08:25:39;101437.44;;;22.26;73.20
65760;BME280;52496;51.082;5.066;2022-08-19T08:28:09;101432.81;;;22.43;74.48
65760;BME280;52496;51.082;5.066;2022-08-19T08:30:41;101441.84;;;22.83;73.73
65760;BME280;52496;51.082;5.066;2022-08-19T08:33:17;101431.69;;;23.17;71.53
65760;BME280;52496;51.082;5.066;2022-08-19T08:35:48;101447.28;;;23.44;70.79
65760;BME280;52496;51.082;5.066;2022-08-19T08:38:18;101442.59;;;23.66;68.70
65760;BME280;52496;51.082;5.066;2022-08-19T08:40:52;101441.22;;;23.91;68.58
65760;BME280;52496;51.082;5.066;2022-08-19T08:43:34;101432.13;;;24.12;68.11
65760;BME280;52496;51.082;5.066;2022-08-19T08:46:12;101435.69;;;24.45;66.47
65760;BME280;52496;51.082;5.066;2022-08-19T08:52:11;101430.91;;;25.20;64.44
65760;BME280;52496;51.082;5.066;2022-08-19T08:54:45;101425.78;;;25.39;60.01
65760;BME280;52496;51.082;5.066;2022-08-19T08:57:32;101423.00;;;25.34;59.74
65760;BME280;52496;51.082;5.066;2022-08-19T09:00:11;101424.66;;;25.40;59.31
65760;BME280;52496;51.082;5.066;2022-08-19T09:02:44;101427.38;;;25.35;58.89
65760;BME280;52496;51.082;5.066;2022-08-19T09:05:15;101426.84;;;25.38;58.92
65760;BME280;52496;51.082;5.066;2022-08-19T09:10:53;101427.97;;;25.52;58.49
65760;BME280;52496;51.082;5.066;2022-08-19T09:14:01;101424.72;;;25.60;59.65
65760;BME280;52496;51.082;5.066;2022-08-19T09:16:33;101421.22;;;25.85;58.33
65760;BME280;52496;51.082;5.066;2022-08-19T09:19:06;101431.34;;;25.95;57.53
65760;BME280;52496;51.082;5.066;2022-08-19T09:21:37;101439.59;;;25.90;57.03
65760;BME280;52496;51.082;5.066;2022-08-19T09:24:08;101435.13;;;25.63;56.87
65760;BME280;52496;51.082;5.066;2022-08-19T09:26:39;101437.25;;;25.36;58.04
65760;BME280;52496;51.082;5.066;2022-08-19T09:29:09;101443.00;;;25.34;59.09
65760;BME280;52496;51.082;5.066;2022-08-19T09:31:40;101438.94;;;25.52;58.47
65760;BME280;52496;51.082;5.066;2022-08-19T09:34:11;101431.63;;;25.89;57.43
65760;BME280;52496;51.082;5.066;2022-08-19T09:36:41;101433.28;;;26.00;57.41
65760;BME280;52496;51.082;5.066;2022-08-19T09:39:12;101441.22;;;26.01;56.72
65760;BME280;52496;51.082;5.066;2022-08-19T09:41:42;101447.25;;;25.98;57.27
65760;BME280;52496;51.082;5.066;2022-08-19T09:44:12;101441.78;;;25.88;57.57
65760;BME280;52496;51.082;5.066;2022-08-19T09:46:43;101442.03;;;25.86;57.14
65760;BME280;52496;51.082;5.066;2022-08-19T09:49:14;101440.66;;;25.89;57.80
65760;BME280;52496;51.082;5.066;2022-08-19T09:51:45;101436.56;;;25.81;58.16
65760;BME280;52496;51.082;5.066;2022-08-19T09:54:19;101446.63;;;25.71;57.73
65760;BME280;52496;51.082;5.066;2022-08-19T09:56:49;101449.88;;;25.52;58.35
65760;BME280;52496;51.082;5.066;2022-08-19T09:59:21;101443.28;;;25.33;58.65
65760;BME280;52496;51.082;5.066;2022-08-19T10:01:51;101449.78;;;25.22;59.86
65760;BME280;52496;51.082;5.066;2022-08-19T10:04:22;101448.16;;;25.21;59.87
65760;BME280;52496;51.082;5.066;2022-08-19T10:06:55;101441.63;;;25.37;60.45
65760;BME280;52496;51.082;5.066;2022-08-19T10:09:26;101441.69;;;25.52;60.16
65760;BME280;52496;51.082;5.066;2022-08-19T10:11:56;101452.66;;;25.57;60.28
65760;BME280;52496;51.082;5.066;2022-08-19T10:14:26;101441.41;;;25.49;59.96
65760;BME280;52496;51.082;5.066;2022-08-19T10:16:57;101448.22;;;25.41;59.44
65760;BME280;52496;51.082;5.066;2022-08-19T10:19:28;101446.56;;;25.30;61.12
65760;BME280;52496;51.082;5.066;2022-08-19T10:22:04;101451.47;;;25.28;60.72
65760;BME280;52496;51.082;5.066;2022-08-19T10:24:35;101443.81;;;25.30;62.10
65760;BME280;52496;51.082;5.066;2022-08-19T10:27:05;101436.72;;;25.44;61.31
65760;BME280;52496;51.082;5.066;2022-08-19T10:29:36;101437.34;;;25.67;60.93
65760;BME280;52496;51.082;5.066;2022-08-19T10:32:08;101432.16;;;25.75;59.99
65760;BME280;52496;51.082;5.066;2022-08-19T10:34:39;101432.94;;;25.71;59.86
65760;BME280;52496;51.082;5.066;2022-08-19T10:37:09;101428.03;;;25.73;60.92
65760;BME280;52496;51.082;5.066;2022-08-19T10:39:40;101417.06;;;25.73;60.95
65760;BME280;52496;51.082;5.066;2022-08-19T10:42:10;101427.47;;;25.76;60.26
65760;BME280;52496;51.082;5.066;2022-08-19T10:44:42;101431.84;;;25.61;59.75
65760;BME280;52496;51.082;5.066;2022-08-19T10:47:13;101432.66;;;25.52;60.86
65760;BME280;52496;51.082;5.066;2022-08-19T10:49:44;101423.03;;;25.49;60.65
65760;BME280;52496;51.082;5.066;2022-08-19T10:52:33;101426.34;;;25.51;61.17
65760;BME280;52496;51.082;5.066;2022-08-19T10:55:06;101425.28;;;25.62;61.16
65760;BME280;52496;51.082;5.066;2022-08-19T10:57:55;101430.47;;;25.74;60.61
65760;BME280;52496;51.082;5.066;2022-08-19T11:00:26;101431.31;;;25.80;61.23
65760;BME280;52496;51.082;5.066;2022-08-19T11:02:56;101429.19;;;25.97;60.87
65760;BME280;52496;51.082;5.066;2022-08-19T11:05:27;101425.34;;;26.19;59.93
65760;BME280;52496;51.082;5.066;2022-08-19T11:07:57;101417.06;;;26.44;59.07
65760;BME280;52496;51.082;5.066;2022-08-19T11:10:28;101423.66;;;26.64;58.51
65760;BME280;52496;51.082;5.066;2022-08-19T11:12:58;101420.88;;;26.79;57.89
65760;BME280;52496;51.082;5.066;2022-08-19T11:15:30;101421.06;;;26.93;57.29
65760;BME280;52496;51.082;5.066;2022-08-19T11:18:02;101418.63;;;26.96;57.54
65760;BME280;52496;51.082;5.066;2022-08-19T11:20:33;101429.53;;;27.07;57.04
65760;BME280;52496;51.082;5.066;2022-08-19T11:23:03;101410.88;;;27.04;56.46
65760;BME280;52496;51.082;5.066;2022-08-19T11:25:34;101424.06;;;27.02;57.57
65760;BME280;52496;51.082;5.066;2022-08-19T11:28:05;101409.22;;;27.08;57.02
65760;BME280;52496;51.082;5.066;2022-08-19T11:30:37;101406.75;;;27.16;56.83
65760;BME280;52496;51.082;5.066;2022-08-19T11:33:08;101401.50;;;27.64;57.21
65760;BME280;52496;51.082;5.066;2022-08-19T11:35:40;101407.81;;;28.04;54.84
65760;BME280;52496;51.082;5.066;2022-08-19T11:38:11;101404.06;;;28.24;53.50
65760;BME280;52496;51.082;5.066;2022-08-19T11:40:42;101413.63;;;28.32;53.54
65760;BME280;52496;51.082;5.066;2022-08-19T11:43:12;101410.19;;;28.45;52.38
65760;BME280;52496;51.082;5.066;2022-08-19T11:45:43;101408.81;;;28.48;52.69
65760;BME280;52496;51.082;5.066;2022-08-19T11:48:14;101401.78;;;28.61;51.96
65760;BME280;52496;51.082;5.066;2022-08-19T11:50:53;101405.88;;;28.63;52.91
65760;BME280;52496;51.082;5.066;2022-08-19T11:53:26;101395.47;;;28.60;52.42
65760;BME280;52496;51.082;5.066;2022-08-19T11:55:56;101404.38;;;28.52;52.21
65760;BME280;52496;51.082;5.066;2022-08-19T11:58:27;101400.72;;;28.56;51.76
65760;BME280;52496;51.082;5.066;2022-08-19T12:00:57;101404.84;;;28.59;52.41
65760;BME280;52496;51.082;5.066;2022-08-19T12:03:28;101407.28;;;28.61;52.11
65760;BME280;52496;51.082;5.066;2022-08-19T12:05:58;101410.94;;;28.56;51.92
65760;BME280;52496;51.082;5.066;2022-08-19T12:08:28;101405.59;;;28.35;52.56
65760;BME280;52496;51.082;5.066;2022-08-19T12:10:59;101411.75;;;28.27;51.96
65760;BME280;52496;51.082;5.066;2022-08-19T12:13:31;101408.25;;;28.17;52.83
65760;BME280;52496;51.082;5.066;2022-08-19T12:16:08;101411.16;;;28.01;52.50
65760;BME280;52496;51.082;5.066;2022-08-19T12:18:42;101405.00;;;27.80;53.64
65760;BME280;52496;51.082;5.066;2022-08-19T12:21:19;101412.53;;;27.59;53.71
65760;BME280;52496;51.082;5.066;2022-08-19T12:23:51;101415.16;;;27.35;54.42
65760;BME280;52496;51.082;5.066;2022-08-19T12:26:23;101407.78;;;27.26;55.20
65760;BME280;52496;51.082;5.066;2022-08-19T12:28:54;101414.97;;;27.21;54.75
65760;BME280;52496;51.082;5.066;2022-08-19T12:31:26;101410.59;;;27.15;55.10
65760;BME280;52496;51.082;5.066;2022-08-19T12:33:58;101409.22;;;27.08;56.17
65760;BME280;52496;51.082;5.066;2022-08-19T12:36:29;101406.53;;;27.03;55.45
65760;BME280;52496;51.082;5.066;2022-08-19T12:38:59;101404.66;;;26.88;56.30
65760;BME280;52496;51.082;5.066;2022-08-19T12:41:30;101406.59;;;26.72;56.97
65760;BME280;52496;51.082;5.066;2022-08-19T12:44:00;101405.56;;;26.58;57.35
65760;BME280;52496;51.082;5.066;2022-08-19T12:46:30;101402.28;;;26.45;57.47
65760;BME280;52496;51.082;5.066;2022-08-19T12:49:01;101404.47;;;26.43;56.84
65760;BME280;52496;51.082;5.066;2022-08-19T12:51:31;101402.28;;;26.56;56.76
65760;BME280;52496;51.082;5.066;2022-08-19T12:54:02;101399.78;;;26.64;57.08
65760;BME280;52496;51.082;5.066;2022-08-19T12:56:33;101403.03;;;26.76;56.81
65760;BME280;52496;51.082;5.066;2022-08-19T12:59:04;101395.06;;;26.85;56.59
65760;BME280;52496;51.082;5.066;2022-08-19T13:01:35;101401.06;;;26.92;56.36
65760;BME280;52496;51.082;5.066;2022-08-19T13:04:05;101393.94;;;26.91;56.77
65760;BME280;52496;51.082;5.066;2022-08-19T13:06:36;101398.31;;;26.92;56.13
65760;BME280;52496;51.082;5.066;2022-08-19T13:09:07;101401.88;;;26.93;56.03
65760;BME280;52496;51.082;5.066;2022-08-19T13:11:37;101394.13;;;27.15;55.80
65760;BME280;52496;51.082;5.066;2022-08-19T13:14:07;101392.03;;;27.41;55.61
65760;BME280;52496;51.082;5.066;2022-08-19T13:16:38;101381.72;;;27.62;55.13
65760;BME280;52496;51.082;5.066;2022-08-19T13:19:08;101386.28;;;27.82;54.75
65760;BME280;52496;51.082;5.066;2022-08-19T13:21:39;101382.59;;;27.97;53.75